Aviation Digital Data Service (ADDS)

Output produced by METARs form (2259 UTC 23 October 2019)
found at http://www.aviationweather.gov/metar/data/
 
METAR text: ZPPP 232200Z 12002MPS 4000 BR FEW006 SCT023 12/11 Q1022 NOSIG
Conditions at: ZPPP (KUNMING/WUJIABA , CN) observed 2200 UTC 23 October 2019
Temperature: 12.0°C (54°F)
Dewpoint: 11.0°C (52°F) [RH = 94%]
Pressure (altimeter): 30.18 inches Hg (1022.0 mb)
Winds: from the ESE (120 degrees) at 5 MPH (4 knots; 2.1 m/s)
Visibility: 2.49 miles (4.01 km)
Ceiling: at least 12,000 feet AGL
Clouds: few clouds at 600 feet AGL
scattered clouds at 2300 feet AGL
Weather: BR  (mist)

METAR text: ZPPP 232100Z 00000MPS 4000 BR SCT004 12/11 Q1022 NOSIG
Conditions at: ZPPP (KUNMING/WUJIABA , CN) observed 2100 UTC 23 October 2019
Temperature: 12.0°C (54°F)
Dewpoint: 11.0°C (52°F) [RH = 94%]
Pressure (altimeter): 30.18 inches Hg (1022.0 mb)
Winds: calm
Visibility: 2.49 miles (4.01 km)
Ceiling: at least 12,000 feet AGL
Clouds: scattered clouds at 400 feet AGL
Weather: BR  (mist)

METAR text: ZPPP 232000Z VRB01MPS 4500 BR SCT004 12/11 Q1022 NOSIG
Conditions at: ZPPP (KUNMING/WUJIABA , CN) observed 2000 UTC 23 October 2019
Temperature: 12.0°C (54°F)
Dewpoint: 11.0°C (52°F) [RH = 94%]
Pressure (altimeter): 30.18 inches Hg (1022.0 mb)
Winds: variable direction winds at 2 MPH (2 knots; 1.0 m/s)
Visibility: 2.80 miles (4.51 km)
Ceiling: at least 12,000 feet AGL
Clouds: scattered clouds at 400 feet AGL
Weather: BR  (mist)

METAR text: ZPPP 231900Z 08002MPS 030V100 6000 SCT006 12/11 Q1022 NOSIG
Conditions at: ZPPP (KUNMING/WUJIABA , CN) observed 1900 UTC 23 October 2019
Temperature: 12.0°C (54°F)
Dewpoint: 11.0°C (52°F) [RH = 94%]
Pressure (altimeter): 30.18 inches Hg (1022.0 mb)
Winds: from the E (80 degrees) at 5 MPH (4 knots; 2.1 m/s)
Visibility: 4 miles ( 6 km)
Ceiling: at least 12,000 feet AGL
Clouds: scattered clouds at 600 feet AGL
Weather: no significant weather observed at this time

METAR text: ZPPP 231800Z 05002MPS 010V080 7000 SCT006 12/11 Q1022 NOSIG
Conditions at: ZPPP (KUNMING/WUJIABA , CN) observed 1800 UTC 23 October 2019
Temperature: 12.0°C (54°F)
Dewpoint: 11.0°C (52°F) [RH = 94%]
Pressure (altimeter): 30.18 inches Hg (1022.0 mb)
Winds: from the NE (50 degrees) at 5 MPH (4 knots; 2.1 m/s)
Visibility: 4 miles ( 7 km)
Ceiling: at least 12,000 feet AGL
Clouds: scattered clouds at 600 feet AGL
Weather: no significant weather observed at this time

METAR text: ZPPP 231700Z 04002MPS 9999 SCT030 12/10 Q1022 NOSIG
Conditions at: ZPPP (KUNMING/WUJIABA , CN) observed 1700 UTC 23 October 2019
Temperature: 12.0°C (54°F)
Dewpoint: 10.0°C (50°F) [RH = 88%]
Pressure (altimeter): 30.18 inches Hg (1022.0 mb)
Winds: from the NE (40 degrees) at 5 MPH (4 knots; 2.1 m/s)
Visibility: 6 or more miles (10+ km)
Ceiling: at least 12,000 feet AGL
Clouds: scattered clouds at 3000 feet AGL
Weather: no significant weather observed at this time

METAR text: ZPPP 231600Z 07003MPS 9999 BKN030 12/10 Q1023 NOSIG
Conditions at: ZPPP (KUNMING/WUJIABA , CN) observed 1600 UTC 23 October 2019
Temperature: 12.0°C (54°F)
Dewpoint: 10.0°C (50°F) [RH = 88%]
Pressure (altimeter): 30.21 inches Hg (1023.0 mb)
Winds: from the ENE (70 degrees) at 7 MPH (6 knots; 3.1 m/s)
Visibility: 6 or more miles (10+ km)
Ceiling: 3000 feet AGL
Clouds: broken clouds at 3000 feet AGL
Weather: no significant weather observed at this time

METAR text: ZPPP 231500Z 21003MPS CAVOK 14/10 Q1022 NOSIG
Conditions at: ZPPP (KUNMING/WUJIABA , CN) observed 1500 UTC 23 October 2019
Temperature: 14.0°C (57°F)
Dewpoint: 10.0°C (50°F) [RH = 77%]
Pressure (altimeter): 30.18 inches Hg (1022.0 mb)
Winds: from the SSW (210 degrees) at 7 MPH (6 knots; 3.1 m/s)
Visibility: 6 or more miles (10+ km)
Ceiling: ceiling and visibility are OK
Clouds: unknown
Weather: no significant weather observed at this time

METAR text: ZPPP 231400Z VRB01MPS CAVOK 15/09 Q1022 BECMG TL1440 04005MPS
Conditions at: ZPPP (KUNMING/WUJIABA , CN) observed 1400 UTC 23 October 2019
Temperature: 15.0°C (59°F)
Dewpoint: 9.0°C (48°F) [RH = 67%]
Pressure (altimeter): 30.18 inches Hg (1022.0 mb)
Winds: variable direction winds at 2 MPH (2 knots; 1.0 m/s)
Visibility: 6 or more miles (10+ km)
Ceiling: ceiling and visibility are OK
Clouds: unknown
Weather: no significant weather observed at this time

METAR text: ZPPP 231300Z 21002MPS CAVOK 15/09 Q1021 BECMG TL1430 05006MPS
Conditions at: ZPPP (KUNMING/WUJIABA , CN) observed 1300 UTC 23 October 2019
Temperature: 15.0°C (59°F)
Dewpoint: 9.0°C (48°F) [RH = 67%]
Pressure (altimeter): 30.15 inches Hg (1021.0 mb)
Winds: from the SSW (210 degrees) at 5 MPH (4 knots; 2.1 m/s)
Visibility: 6 or more miles (10+ km)
Ceiling: ceiling and visibility are OK
Clouds: unknown
Weather: no significant weather observed at this time

METAR text: ZPPP 231200Z 20003MPS CAVOK 16/09 Q1020 NOSIG
Conditions at: ZPPP (KUNMING/WUJIABA , CN) observed 1200 UTC 23 October 2019
Temperature: 16.0°C (61°F)
Dewpoint: 9.0°C (48°F) [RH = 63%]
Pressure (altimeter): 30.12 inches Hg (1020.0 mb)
Winds: from the SSW (200 degrees) at 7 MPH (6 knots; 3.1 m/s)
Visibility: 6 or more miles (10+ km)
Ceiling: ceiling and visibility are OK
Clouds: unknown
Weather: no significant weather observed at this time

METAR text: ZPPP 231100Z 17003MPS CAVOK 17/08 Q1020 NOSIG
Conditions at: ZPPP (KUNMING/WUJIABA , CN) observed 1100 UTC 23 October 2019
Temperature: 17.0°C (63°F)
Dewpoint: 8.0°C (46°F) [RH = 55%]
Pressure (altimeter): 30.12 inches Hg (1020.0 mb)
Winds: from the S (170 degrees) at 7 MPH (6 knots; 3.1 m/s)
Visibility: 6 or more miles (10+ km)
Ceiling: ceiling and visibility are OK
Clouds: unknown
Weather: no significant weather observed at this time

METAR text: ZPPP 231000Z 22005MPS 190V260 CAVOK 20/07 Q1019 NOSIG
Conditions at: ZPPP (KUNMING/WUJIABA , CN) observed 1000 UTC 23 October 2019
Temperature: 20.0°C (68°F)
Dewpoint: 7.0°C (45°F) [RH = 43%]
Pressure (altimeter): 30.09 inches Hg (1019.0 mb)
Winds: from the SW (220 degrees) at 12 MPH (10 knots; 5.1 m/s)
Visibility: 6 or more miles (10+ km)
Ceiling: ceiling and visibility are OK
Clouds: unknown
Weather: no significant weather observed at this time

METAR text: ZPPP 230900Z 22004MPS 9999 FEW030 21/06 Q1019 NOSIG
Conditions at: ZPPP (KUNMING/WUJIABA , CN) observed 0900 UTC 23 October 2019
Temperature: 21.0°C (70°F)
Dewpoint: 6.0°C (43°F) [RH = 38%]
Pressure (altimeter): 30.09 inches Hg (1019.0 mb)
Winds: from the SW (220 degrees) at 9 MPH (8 knots; 4.1 m/s)
Visibility: 6 or more miles (10+ km)
Ceiling: at least 12,000 feet AGL
Clouds: few clouds at 3000 feet AGL
Weather: no significant weather observed at this time

METAR text: ZPPP 230800Z VRB02MPS 9999 FEW030 22/06 Q1019 NOSIG
Conditions at: ZPPP (KUNMING/WUJIABA , CN) observed 0800 UTC 23 October 2019
Temperature: 22.0°C (72°F)
Dewpoint: 6.0°C (43°F) [RH = 35%]
Pressure (altimeter): 30.09 inches Hg (1019.0 mb)
Winds: variable direction winds at 5 MPH (4 knots; 2.1 m/s)
Visibility: 6 or more miles (10+ km)
Ceiling: at least 12,000 feet AGL
Clouds: few clouds at 3000 feet AGL
Weather: no significant weather observed at this time

METAR text: ZPPP 230700Z 22005MPS 190V260 9999 SCT030 21/07 Q1019 NOSIG
Conditions at: ZPPP (KUNMING/WUJIABA , CN) observed 0700 UTC 23 October 2019
Temperature: 21.0°C (70°F)
Dewpoint: 7.0°C (45°F) [RH = 40%]
Pressure (altimeter): 30.09 inches Hg (1019.0 mb)
Winds: from the SW (220 degrees) at 12 MPH (10 knots; 5.1 m/s)
Visibility: 6 or more miles (10+ km)
Ceiling: at least 12,000 feet AGL
Clouds: scattered clouds at 3000 feet AGL
Weather: no significant weather observed at this time

METAR text: ZPPP 230600Z 22005MPS 180V260 9999 SCT030 22/08 Q1020 NOSIG
Conditions at: ZPPP (KUNMING/WUJIABA , CN) observed 0600 UTC 23 October 2019
Temperature: 22.0°C (72°F)
Dewpoint: 8.0°C (46°F) [RH = 41%]
Pressure (altimeter): 30.12 inches Hg (1020.0 mb)
Winds: from the SW (220 degrees) at 12 MPH (10 knots; 5.1 m/s)
Visibility: 6 or more miles (10+ km)
Ceiling: at least 12,000 feet AGL
Clouds: scattered clouds at 3000 feet AGL
Weather: no significant weather observed at this time

METAR text: ZPPP 230500Z 21003MPS 160V270 9999 SCT030 20/08 Q1020 NOSIG
Conditions at: ZPPP (KUNMING/WUJIABA , CN) observed 0500 UTC 23 October 2019
Temperature: 20.0°C (68°F)
Dewpoint: 8.0°C (46°F) [RH = 46%]
Pressure (altimeter): 30.12 inches Hg (1020.0 mb)
Winds: from the SSW (210 degrees) at 7 MPH (6 knots; 3.1 m/s)
Visibility: 6 or more miles (10+ km)
Ceiling: at least 12,000 feet AGL
Clouds: scattered clouds at 3000 feet AGL
Weather: no significant weather observed at this time

METAR text: ZPPP 230400Z 20003MPS 140V280 9999 BKN026 20/10 Q1022 NOSIG
Conditions at: ZPPP (KUNMING/WUJIABA , CN) observed 0400 UTC 23 October 2019
Temperature: 20.0°C (68°F)
Dewpoint: 10.0°C (50°F) [RH = 53%]
Pressure (altimeter): 30.18 inches Hg (1022.0 mb)
Winds: from the SSW (200 degrees) at 7 MPH (6 knots; 3.1 m/s)
Visibility: 6 or more miles (10+ km)
Ceiling: 2600 feet AGL
Clouds: broken clouds at 2600 feet AGL
Weather: no significant weather observed at this time

METAR text: ZPPP 230300Z 20003MPS 140V250 9999 SCT026 18/10 Q1022 NOSIG
Conditions at: ZPPP (KUNMING/WUJIABA , CN) observed 0300 UTC 23 October 2019
Temperature: 18.0°C (64°F)
Dewpoint: 10.0°C (50°F) [RH = 59%]
Pressure (altimeter): 30.18 inches Hg (1022.0 mb)
Winds: from the SSW (200 degrees) at 7 MPH (6 knots; 3.1 m/s)
Visibility: 6 or more miles (10+ km)
Ceiling: at least 12,000 feet AGL
Clouds: scattered clouds at 2600 feet AGL
Weather: no significant weather observed at this time

METAR text: ZPPP 230200Z 22002MPS 160V260 9999 BKN023 16/11 Q1023 NOSIG
Conditions at: ZPPP (KUNMING/WUJIABA , CN) observed 0200 UTC 23 October 2019
Temperature: 16.0°C (61°F)
Dewpoint: 11.0°C (52°F) [RH = 72%]
Pressure (altimeter): 30.21 inches Hg (1023.0 mb)
Winds: from the SW (220 degrees) at 5 MPH (4 knots; 2.1 m/s)
Visibility: 6 or more miles (10+ km)
Ceiling: 2300 feet AGL
Clouds: broken clouds at 2300 feet AGL
Weather: no significant weather observed at this time

METAR text: ZPPP 230100Z 00000MPS 9000 SCT023 14/12 Q1022 BECMG TL0240 22005MPS
Conditions at: ZPPP (KUNMING/WUJIABA , CN) observed 0100 UTC 23 October 2019
Temperature: 14.0°C (57°F)
Dewpoint: 12.0°C (54°F) [RH = 88%]
Pressure (altimeter): 30.18 inches Hg (1022.0 mb)
Winds: calm
Visibility: 6 miles ( 9 km)
Ceiling: at least 12,000 feet AGL
Clouds: scattered clouds at 2300 feet AGL
Weather: no significant weather observed at this time

METAR text: ZPPP 230000Z VRB01MPS 8000 SCT023 BKN040 11/10 Q1021 NOSIG
Conditions at: ZPPP (KUNMING/WUJIABA , CN) observed 0000 UTC 23 October 2019
Temperature: 11.0°C (52°F)
Dewpoint: 10.0°C (50°F) [RH = 94%]
Pressure (altimeter): 30.15 inches Hg (1021.0 mb)
Winds: variable direction winds at 2 MPH (2 knots; 1.0 m/s)
Visibility: 5 miles ( 8 km)
Ceiling: 4000 feet AGL
Clouds: scattered clouds at 2300 feet AGL
broken clouds at 4000 feet AGL
Weather: no significant weather observed at this time

METAR text: ZPPP 222300Z 06002MPS 8000 FEW023 SCT040 10/10 Q1020 NOSIG
Conditions at: ZPPP (KUNMING/WUJIABA , CN) observed 2300 UTC 22 October 2019
Temperature: 10.0°C (50°F)
Dewpoint: 10.0°C (50°F) [RH = 100%]
Pressure (altimeter): 30.12 inches Hg (1020.0 mb)
Winds: from the ENE (60 degrees) at 5 MPH (4 knots; 2.1 m/s)
Visibility: 5 miles ( 8 km)
Ceiling: at least 12,000 feet AGL
Clouds: few clouds at 2300 feet AGL
scattered clouds at 4000 feet AGL
Weather: no significant weather observed at this time

METAR text: ZPPP 222200Z 25002MPS 9999 FEW023 13/11 Q1019 NOSIG
Conditions at: ZPPP (KUNMING/WUJIABA , CN) observed 2200 UTC 22 October 2019
Temperature: 13.0°C (55°F)
Dewpoint: 11.0°C (52°F) [RH = 88%]
Pressure (altimeter): 30.09 inches Hg (1019.0 mb)
Winds: from the WSW (250 degrees) at 5 MPH (4 knots; 2.1 m/s)
Visibility: 6 or more miles (10+ km)
Ceiling: at least 12,000 feet AGL
Clouds: few clouds at 2300 feet AGL
Weather: no significant weather observed at this time

METAR text: ZPPP 222100Z 21003MPS 9999 FEW023 13/11 Q1019 NOSIG
Conditions at: ZPPP (KUNMING/WUJIABA , CN) observed 2100 UTC 22 October 2019
Temperature: 13.0°C (55°F)
Dewpoint: 11.0°C (52°F) [RH = 88%]
Pressure (altimeter): 30.09 inches Hg (1019.0 mb)
Winds: from the SSW (210 degrees) at 7 MPH (6 knots; 3.1 m/s)
Visibility: 6 or more miles (10+ km)
Ceiling: at least 12,000 feet AGL
Clouds: few clouds at 2300 feet AGL
Weather: no significant weather observed at this time

METAR text: ZPPP 222000Z 19003MPS CAVOK 13/11 Q1018 NOSIG
Conditions at: ZPPP (KUNMING/WUJIABA , CN) observed 2000 UTC 22 October 2019
Temperature: 13.0°C (55°F)
Dewpoint: 11.0°C (52°F) [RH = 88%]
Pressure (altimeter): 30.06 inches Hg (1018.0 mb)
Winds: from the S (190 degrees) at 7 MPH (6 knots; 3.1 m/s)
Visibility: 6 or more miles (10+ km)
Ceiling: ceiling and visibility are OK
Clouds: unknown
Weather: no significant weather observed at this time

METAR text: ZPPP 221900Z 18003MPS CAVOK 13/11 Q1019 NOSIG
Conditions at: ZPPP (KUNMING/WUJIABA , CN) observed 1900 UTC 22 October 2019
Temperature: 13.0°C (55°F)
Dewpoint: 11.0°C (52°F) [RH = 88%]
Pressure (altimeter): 30.09 inches Hg (1019.0 mb)
Winds: from the S (180 degrees) at 7 MPH (6 knots; 3.1 m/s)
Visibility: 6 or more miles (10+ km)
Ceiling: ceiling and visibility are OK
Clouds: unknown
Weather: no significant weather observed at this time

METAR text: ZPPP 221800Z 20003MPS CAVOK 13/11 Q1019 NOSIG
Conditions at: ZPPP (KUNMING/WUJIABA , CN) observed 1800 UTC 22 October 2019
Temperature: 13.0°C (55°F)
Dewpoint: 11.0°C (52°F) [RH = 88%]
Pressure (altimeter): 30.09 inches Hg (1019.0 mb)
Winds: from the SSW (200 degrees) at 7 MPH (6 knots; 3.1 m/s)
Visibility: 6 or more miles (10+ km)
Ceiling: ceiling and visibility are OK
Clouds: unknown
Weather: no significant weather observed at this time

METAR text: ZPPP 221700Z 18003MPS CAVOK 13/11 Q1019 NOSIG
Conditions at: ZPPP (KUNMING/WUJIABA , CN) observed 1700 UTC 22 October 2019
Temperature: 13.0°C (55°F)
Dewpoint: 11.0°C (52°F) [RH = 88%]
Pressure (altimeter): 30.09 inches Hg (1019.0 mb)
Winds: from the S (180 degrees) at 7 MPH (6 knots; 3.1 m/s)
Visibility: 6 or more miles (10+ km)
Ceiling: ceiling and visibility are OK
Clouds: unknown
Weather: no significant weather observed at this time

METAR text: ZPPP 221600Z 00000MPS CAVOK 14/11 Q1019 NOSIG
Conditions at: ZPPP (KUNMING/WUJIABA , CN) observed 1600 UTC 22 October 2019
Temperature: 14.0°C (57°F)
Dewpoint: 11.0°C (52°F) [RH = 82%]
Pressure (altimeter): 30.09 inches Hg (1019.0 mb)
Winds: calm
Visibility: 6 or more miles (10+ km)
Ceiling: ceiling and visibility are OK
Clouds: unknown
Weather: no significant weather observed at this time

METAR text: ZPPP 221500Z 20003MPS CAVOK 15/12 Q1020 NOSIG
Conditions at: ZPPP (KUNMING/WUJIABA , CN) observed 1500 UTC 22 October 2019
Temperature: 15.0°C (59°F)
Dewpoint: 12.0°C (54°F) [RH = 82%]
Pressure (altimeter): 30.12 inches Hg (1020.0 mb)
Winds: from the SSW (200 degrees) at 7 MPH (6 knots; 3.1 m/s)
Visibility: 6 or more miles (10+ km)
Ceiling: ceiling and visibility are OK
Clouds: unknown
Weather: no significant weather observed at this time

METAR text: ZPPP 221400Z 21004MPS CAVOK 15/12 Q1020 NOSIG
Conditions at: ZPPP (KUNMING/WUJIABA , CN) observed 1400 UTC 22 October 2019
Temperature: 15.0°C (59°F)
Dewpoint: 12.0°C (54°F) [RH = 82%]
Pressure (altimeter): 30.12 inches Hg (1020.0 mb)
Winds: from the SSW (210 degrees) at 9 MPH (8 knots; 4.1 m/s)
Visibility: 6 or more miles (10+ km)
Ceiling: ceiling and visibility are OK
Clouds: unknown
Weather: no significant weather observed at this time

METAR text: ZPPP 221300Z 20005MPS CAVOK 16/12 Q1019 NOSIG
Conditions at: ZPPP (KUNMING/WUJIABA , CN) observed 1300 UTC 22 October 2019
Temperature: 16.0°C (61°F)
Dewpoint: 12.0°C (54°F) [RH = 77%]
Pressure (altimeter): 30.09 inches Hg (1019.0 mb)
Winds: from the SSW (200 degrees) at 12 MPH (10 knots; 5.1 m/s)
Visibility: 6 or more miles (10+ km)
Ceiling: ceiling and visibility are OK
Clouds: unknown
Weather: no significant weather observed at this time

METAR text: ZPPP 221200Z 21005MPS 9999 FEW026 17/12 Q1018 NOSIG
Conditions at: ZPPP (KUNMING/WUJIABA , CN) observed 1200 UTC 22 October 2019
Temperature: 17.0°C (63°F)
Dewpoint: 12.0°C (54°F) [RH = 72%]
Pressure (altimeter): 30.06 inches Hg (1018.0 mb)
Winds: from the SSW (210 degrees) at 12 MPH (10 knots; 5.1 m/s)
Visibility: 6 or more miles (10+ km)
Ceiling: at least 12,000 feet AGL
Clouds: few clouds at 2600 feet AGL
Weather: no significant weather observed at this time

METAR text: ZPPP 221100Z 22007MPS 9999 FEW026 18/11 Q1017 NOSIG
Conditions at: ZPPP (KUNMING/WUJIABA , CN) observed 1100 UTC 22 October 2019
Temperature: 18.0°C (64°F)
Dewpoint: 11.0°C (52°F) [RH = 64%]
Pressure (altimeter): 30.03 inches Hg (1017.0 mb)
Winds: from the SW (220 degrees) at 16 MPH (14 knots; 7.2 m/s)
Visibility: 6 or more miles (10+ km)
Ceiling: at least 12,000 feet AGL
Clouds: few clouds at 2600 feet AGL
Weather: no significant weather observed at this time

Forecast for: ZPPP (KUNMING/WUJIABA , CN)
Text: TAF ZPPP 231914Z 2400/2424 04004MPS 3100 BR SCT003 SCT020 BKN033 TX22/2408Z TN12/2423Z
Forecast period: 0000 UTC 24 October 2019 to 0000 UTC 25 October 2019
Forecast type: FROM: standard forecast or significant change
Winds: from the NE (40 degrees) at 9 MPH (8 knots; 4.1 m/s)
Visibility: 1.93 miles (3.11 km)
Ceiling: 3300 feet AGL
Clouds: scattered clouds at 300 feet AGL
scattered clouds at 2000 feet AGL
broken clouds at 3300 feet AGL
Weather: BR  (mist)
Text: BECMG 2400/2401 22005MPS
Forecast period: 0000 UTC 24 October 2019 to 0000 UTC 25 October 2019
Forecast type: BECOMING: Conditions expected to become as follows by 0100 UTC 24 October 2019
Winds: from the SW (220 degrees) at 12 MPH (10 knots; 5.1 m/s)
Visibility: 1.93 miles (3.11 km)
Ceiling: 3300 feet AGL
Clouds: scattered clouds at 300 feet AGL
scattered clouds at 2000 feet AGL
broken clouds at 3300 feet AGL
Weather: BR  (mist)